• Join FlightAware (Why Join?)
  • Login
  • US Flag 
10:47PM EST


 

Airport Tracker/Info


-or-


 

Live Flight TrackerFlight Track Log ✈ SWA397 ✈ 03-Jun-2013 ✈ KLAS - KHOU

Flight Track Log - Related Links

Times and Time Zones

All times are in EDT time to prevent confusion due to time zone crossing. See the SWA397 flight status page for this flight to view local times or setup timezone preferences in your user account.

Time Position Orientation Groundspeed Altitude Reporting Facility
EDT Latitude Longitude Course Direction KTS MPH feet Rate Location/Type
03:10PM 36.0772 -115.1731 269° West 190 219 3,100  Level Los Angeles Center
03:11PM 36.0767 -115.2106 269° West 184 212 4,300 1,440 Climbing Los Angeles Center
03:12PM 36.0419 -115.2697 234° Southwest 239 275 5,500 1,440 Climbing Los Angeles Center
03:13PM 36.0061 -115.2839 198° South 247 284 6,500 2,220 Climbing Los Angeles Center
03:14PM 35.9317 -115.2858 181° South 267 307 9,000 2,220 Climbing Los Angeles Center
03:15PM 35.8881 -115.2089 125° Southeast 296 341 11,100 2,280 Climbing Los Angeles Center
03:16PM 35.8919 -115.0928 88° East 335 386 13,800 2,280 Climbing Los Angeles Center
03:17PM 35.8956 -114.9725 88° East 348 400 15,900 2,460 Climbing Los Angeles Center
03:18PM 35.9006 -114.8136 88° East 383 441 19,000 2,280 Climbing Los Angeles Center
03:19PM 35.9039 -114.6794 88° East 393 452 20,700 1,560 Climbing Los Angeles Center
03:20PM 35.9072 -114.5347 88° East 417 480 22,300 1,620 Climbing Los Angeles Center
03:21PM 35.9111 -114.3853 88° East 434 499 24,100 1,620 Climbing Los Angeles Center
03:22PM 35.9153 -114.2308 88° East 447 514 25,700 1,680 Climbing Los Angeles Center
03:23PM 35.9197 -114.0422 88° East 457 526 27,600 1,500 Climbing Los Angeles Center
03:24PM 35.9203 -113.8811 90° East 468 539 28,800 1,080 Climbing Los Angeles Center
03:25PM 35.8858 -113.7219 105° East 476 548 29,900 1,080 Climbing Los Angeles Center
03:26PM 35.8556 -113.5750 104° East 483 556 31,100 1,320 Climbing Los Angeles Center
03:27PM 35.8169 -113.3814 104° East 487 560 32,700 1,320 Climbing Los Angeles Center
03:28PM 35.7836 -113.2211 104° East 484 557 33,900 1,080 Climbing Los Angeles Center
03:29PM 35.7500 -113.0611 104° East 482 555 35,000 480 Climbing Los Angeles Center
03:30PM 35.7156 -112.9008 105° East 482 555 35,000  Level Los Angeles Center
03:31PM 35.6806 -112.7322 104° East 478 550 35,000  Level Los Angeles Center
03:32PM 35.6478 -112.5844 105° East 478 550 35,000  Level Los Angeles Center
03:33PM 35.6128 -112.4236 105° East 484 557 35,000 420 Level Los Angeles Center
03:34PM 35.5564 -112.2403 111° Southeast 478 550 35,900 780 Climbing Los Angeles Center
03:35PM 35.5061 -112.0906 112° Southeast 477 549 36,700 480 Climbing Los Angeles Center
03:36PM 35.4558 -111.9394 112° Southeast 480 552 37,000 120 Climbing Los Angeles Center
03:37PM 35.4042 -111.7903 113° Southeast 478 550 37,000  Level Los Angeles Center
03:38PM 35.3536 -111.6433 113° Southeast 476 548 37,000  Level Los Angeles Center
03:39PM 35.3022 -111.4961 113° Southeast 471 542 37,000  Level Los Angeles Center
03:40PM 35.2503 -111.3417 112° Southeast 477 549 37,000  Level Albuquerque Center
03:41PM 35.1978 -111.1897 113° Southeast 479 551 37,000  Level Albuquerque Center
03:42PM 35.1358 -111.0083 113° Southeast 479 551 37,000  Level Albuquerque Center
03:44PM 35.0850 -110.8625 113° Southeast 484 557 37,000  Level Albuquerque Center
03:45PM 35.0178 -110.7292 122° Southeast 479 551 37,000  Level Albuquerque Center
03:46PM 34.9244 -110.5925 130° Southeast 472 543 37,000  Level Albuquerque Center
03:47PM 34.8458 -110.4742 129° Southeast 471 542 37,000  Level Albuquerque Center
03:48PM 34.7522 -110.3386 130° Southeast 471 542 37,000  Level Albuquerque Center
03:49PM 34.6719 -110.2203 129° Southeast 473 544 37,000  Level Albuquerque Center
03:50PM 34.5769 -110.0811 130° Southeast 477 549 37,000  Level Albuquerque Center
03:51PM 34.4925 -109.9581 130° Southeast 486 559 37,000  Level Albuquerque Center
03:52PM 34.3972 -109.8211 130° Southeast 481 554 37,000  Level Albuquerque Center
03:53PM 34.3147 -109.7025 130° Southeast 482 555 37,000  Level Albuquerque Center
03:54PM 34.2319 -109.5825 130° Southeast 485 558 37,000  Level Albuquerque Center
03:55PM 34.1344 -109.4428 130° Southeast 487 560 37,000  Level Albuquerque Center
03:56PM 34.0589 -109.3356 130° Southeast 487 560 37,000  Level Albuquerque Center
03:57PM 33.9575 -109.1906 130° Southeast 480 552 37,000  Level Albuquerque Center
03:58PM 33.8711 -109.0700 131° Southeast 478 550 37,000  Level Albuquerque Center
03:59PM 33.7850 -108.9489 131° Southeast 478 550 37,000  Level Albuquerque Center
04:00PM 33.6978 -108.8275 131° Southeast 480 552 37,000  Level Albuquerque Center
04:01PM 33.6119 -108.7047 130° Southeast 451 519 37,000  Level Albuquerque Center
04:02PM 33.5219 -108.5811 131° Southeast 490 564 37,000  Level Albuquerque Center
04:03PM 33.4169 -108.4356 131° Southeast 490 564 37,000  Level Albuquerque Center
04:04PM 33.3294 -108.3139 131° Southeast 487 560 37,000  Level Albuquerque Center
04:05PM 33.2406 -108.1919 131° Southeast 486 559 37,000  Level Albuquerque Center
04:06PM 33.1500 -108.0711 132° Southeast 487 560 37,000  Level Albuquerque Center
04:07PM 33.0589 -107.9506 132° Southeast 489 563 37,000  Level Albuquerque Center
04:08PM 32.9714 -107.8303 131° Southeast 485 558 37,000  Level Albuquerque Center
04:09PM 32.8847 -107.7067 130° Southeast 485 558 37,000  Level Albuquerque Center
04:10PM 32.7781 -107.5636 132° Southeast 483 556 37,000  Level Albuquerque Center
04:11PM 32.6914 -107.4461 131° Southeast 483 556 37,000  Level Albuquerque Center
04:12PM 32.6042 -107.3272 131° Southeast 482 555 37,000  Level Albuquerque Center
04:13PM 32.5161 -107.2100 132° Southeast 480 552 37,000  Level Albuquerque Center
04:14PM 32.4147 -107.0717 131° Southeast 477 549 37,000  Level Albuquerque Center
04:15PM 32.3281 -106.9519 131° Southeast 481 554 37,000  Level Albuquerque Center
04:16PM 32.2422 -106.8375 132° Southeast 481 554 37,000  Level Albuquerque Center
04:17PM 32.2044 -106.6833 106° East 494 568 37,000  Level Albuquerque Center
04:18PM 32.1806 -106.5225 100° East 499 574 37,000  Level Albuquerque Center
04:19PM 32.1561 -106.3622 100° East 500 575 37,000  Level Albuquerque Center
04:21PM 32.1275 -106.1706 100° East 497 572 37,000  Level Albuquerque Center
04:22PM 32.1028 -106.0100 100° East 498 573 37,000  Level Albuquerque Center
04:23PM 32.0775 -105.8475 100° East 495 570 37,000  Level Albuquerque Center
04:24PM 32.0511 -105.6753 100° East 495 570 37,000  Level Albuquerque Center
04:25PM 32.0253 -105.5153 101° East 498 573 37,000  Level Albuquerque Center
04:26PM 32.0017 -105.3556 100° East 495 570 37,000  Level Albuquerque Center
04:27PM 31.9775 -105.2008 100° East 495 570 37,000  Level Albuquerque Center
04:28PM 31.9533 -105.0406 100° East 497 572 37,000  Level Albuquerque Center
04:29PM 31.9294 -104.8803 100° East 496 571 37,000  Level Albuquerque Center
04:30PM 31.9044 -104.7189 100° East 500 575 37,000  Level Albuquerque Center
04:31PM 31.8728 -104.5283 101° East 498 573 37,000  Level Albuquerque Center
04:32PM 31.8458 -104.3694 101° East 496 571 37,000  Level Albuquerque Center
04:33PM 31.8192 -104.2106 101° East 497 572 37,000  Level Albuquerque Center
04:34PM 31.7597 -104.0658 116° Southeast 502 578 37,000  Level Albuquerque Center
04:35PM 31.7025 -103.9228 115° Southeast 488 562 37,000  Level Albuquerque Center
04:36PM 31.6522 -103.7767 112° Southeast 489 563 37,000  Level Albuquerque Center
04:37PM 31.6317 -103.6103 98° East 490 564 37,000  Level Albuquerque Center
04:38PM 31.6017 -103.4264 101° East 496 571 37,000  Level Albuquerque Center
04:39PM 31.5772 -103.2686 100° East 493 567 37,000  Level Albuquerque Center
04:40PM 31.5528 -103.1100 100° East 494 568 37,000  Level Albuquerque Center
04:41PM 31.5278 -102.9531 101° East 491 565 37,000  Level Albuquerque Center
04:42PM 31.5028 -102.7972 101° East 489 563 37,000  Level Albuquerque Center
04:43PM 31.4778 -102.6408 101° East 488 562 37,000  Level Albuquerque Center
04:44PM 31.4519 -102.4825 101° East 489 563 37,000  Level Albuquerque Center
04:45PM 31.4264 -102.3250 101° East 492 566 37,000  Level Albuquerque Center
04:46PM 31.4003 -102.1681 101° East 493 567 37,000  Level Albuquerque Center
04:47PM 31.3722 -101.9833 100° East 502 578 37,000  Level Albuquerque Center
04:48PM 31.3653 -101.9422 101° East 487 560 37,000  Level Houston Center
04:49PM 31.3389 -101.7881 101° East 483 556 37,000  Level Houston Center
04:50PM 31.3069 -101.6047 101° East 481 554 37,000  Level Houston Center
04:51PM 31.2806 -101.4522 101° East 480 552 37,000  Level Houston Center
04:52PM 31.2544 -101.2986 101° East 481 554 37,000  Level Houston Center
04:53PM 31.2281 -101.1453 101° East 482 555 37,000  Level Houston Center
04:54PM 31.2000 -100.9842 101° East 487 560 37,000  Level Houston Center
04:55PM 31.1733 -100.8289 101° East 488 562 37,000  Level Houston Center
04:56PM 31.1456 -100.6742 102° East 488 562 37,000  Level Houston Center
04:57PM 31.1181 -100.5189 102° East 488 562 37,000  Level Houston Center
04:58PM 31.0847 -100.3322 102° East 490 564 37,000  Level Houston Center
04:59PM 31.0575 -100.1764 101° East 489 563 37,000  Level Houston Center
05:00PM 31.0289 -100.0217 102° East 488 562 37,000  Level Houston Center
05:01PM 31.0008 -99.8664 102° East 488 562 37,000  Level Houston Center
05:02PM 30.9725 -99.7128 102° East 485 558 37,000  Level Houston Center
05:03PM 30.9439 -99.5600 102° East 482 555 37,000  Level Houston Center
05:04PM 30.9156 -99.4064 102° East 484 557 37,000  Level Houston Center
05:05PM 30.8794 -99.2236 103° East 484 557 37,000  Level Houston Center
05:06PM 30.8497 -99.0653 102° East 481 554 37,000  Level Houston Center
05:07PM 30.8206 -98.9117 102° East 483 556 37,000  Level Houston Center
05:08PM 30.7917 -98.7572 102° East 484 557 37,000  Level Houston Center
05:09PM 30.7794 -98.5994 95° East 486 559 37,000  Level Houston Center
05:10PM 30.7650 -98.4422 97° East 485 558 37,000  Level Houston Center
05:11PM 30.7607 -98.4309 97° East  Level FlightAware Approximate
05:11PM 30.7489 -98.2861 97° East 484 557 37,000  Level Houston Center
05:12PM 30.7325 -98.1286 97° East 485 558 37,000  Level Houston Center
05:13PM 30.7156 -97.9453 96° East 486 559 37,000 -780 Level Houston Center
05:14PM 30.7003 -97.7883 96° East 487 560 35,500 -1,800 Descending Houston Center
05:16PM 30.6831 -97.6342 97° East 482 555 33,300 -2,040 Descending Houston Center
05:17PM 30.6686 -97.4833 96° East 473 544 31,300 -1,920 Descending Houston Center
05:18PM 30.6536 -97.3378 97° East 459 528 29,400 -1,860 Descending Houston Center
05:19PM 30.6394 -97.1975 97° East 443 510 27,500 -2,040 Descending Houston Center
05:20PM 30.6239 -97.0397 96° East 423 487 25,300 -1,920 Descending Houston Center
05:21PM 30.6094 -96.9086 97° East 411 473 23,600 -1,680 Descending Houston Center
05:22PM 30.5767 -96.7881 107° East 399 459 21,900 -1,680 Descending Houston Center
05:23PM 30.5147 -96.6925 127° Southeast 373 429 20,200 -1,740 Descending Houston Center
05:24PM 30.4511 -96.5933 127° Southeast 378 435 18,400 -1,860 Descending Houston Center
05:25PM 30.3892 -96.4942 126° Southeast 378 435 16,400 -1,920 Descending Houston Center
05:26PM 30.3283 -96.3986 126° Southeast 367 422 14,500 -2,100 Descending Houston Center
05:26PM 30.3047 -96.3614 126° Southeast 362 417 13,700 -2,040 Descending Houston Center
05:27PM 30.2583 -96.2900 127° Southeast 358 412 12,400 -1,680 Descending Houston Center
05:28PM 30.2131 -96.2194 127° Southeast 356 410 11,100 -780 Descending Houston Center
05:29PM 30.1178 -96.1600 152° Southeast 359 413 11,000 -180 Descending Houston Center
05:29PM 30.0983 -96.1492 154° Southeast 360 414 10,900 -300 Descending Houston Center
05:30PM 30.0314 -96.1047 150° Southeast 342 394 10,700 -420 Descending Houston Center
05:30PM 30.0158 -96.0911 143° Southeast 350 403 10,500 -720 Descending Houston Center
05:31PM 29.9617 -96.0283 135° Southeast 334 384 10,000 -600 Descending Houston Center
05:31PM 29.9497 -96.0153 137° Southeast 333 383 9,900  Descending Houston Center
05:32PM 29.8942 -95.9517 135° Southeast 336 387 10,000 60 Climbing Houston Center
05:32PM 29.8878 -95.9461 143° Southeast 334 384 10,000 -900 Level Houston Center
05:33PM 29.8386 -95.8906 136° Southeast 298 343 9,200 -1,260 Descending Houston Center
05:33PM 29.8136 -95.8633 137° Southeast 312 359 8,700 -1,380 Descending Houston Center
05:34PM 29.7758 -95.8208 136° Southeast 306 352 7,800 -1,380 Descending Houston Center
05:34PM 29.7536 -95.7961 136° Southeast 304 350 7,300 -1,500 Descending Houston Center
05:35PM 29.7172 -95.7531 134° Southeast 299 344 6,300 -1,260 Descending Houston Center
05:35PM 29.6953 -95.7297 137° Southeast 298 343 6,000 -300 Descending Houston Center
05:36PM 29.6497 -95.6769 135° Southeast 296 341 6,000  Level Houston Center
05:36PM 29.6372 -95.6644 139° Southeast 294 338 6,000  Level Houston Center
05:37PM 29.5914 -95.6139 136° Southeast 281 323 6,000 -300 Level Houston Center
05:37PM 29.5808 -95.6022 136° Southeast 288 331 5,700 -1,020 Descending Houston Center
05:38PM 29.5683 -95.5422 103° East 241 277 5,000 -720 Descending Houston Center
05:38PM 29.5678 -95.5289 93° East 245 282 5,000 -720 Level Houston Center
05:39PM 29.5614 -95.4661 97° East 229 264 4,300 -1,140 Descending Houston Center
05:39PM 29.5578 -95.4417 100° East 232 267 3,900 -1,380 Descending Houston Center
05:40PM 29.5531 -95.3975 97° East 204 235 2,900 -1,380 Descending Houston Center
05:40PM 29.5544 -95.3786 85° East 213 245 2,500 -1,200 Descending Houston Center
05:41PM 29.5819 -95.3483 44° Northeast 173 199 1,600 -1,080 Descending Houston Center
05:41PM 29.5894 -95.3392 47° Northeast 189 217 1,400 -900 Descending Houston Center
05:42PM 29.6086 -95.3189 43° Northeast 148 170 800 -900 Descending Houston Center
05:42PM 29.6203 -95.3072 41° Northeast 165 190 500 19,620 Descending Houston Center
05:43PM 29.6558 -95.2686 43° Northeast 159 183 29,000 27,540 Climbing Houston Center
05:45PM 29.6454 -95.2789 221° Southwest  Level Estimated